createdAt,value
2019-03-27T00:00:00.891Z,7.800000
2019-03-27T00:02:31.168Z,7.800000
2019-03-27T00:05:01.471Z,6.900000
2019-03-27T00:07:31.795Z,6.900000
2019-03-27T00:10:02.169Z,9.600000
2019-03-27T00:12:32.657Z,9.600000
2019-03-27T00:15:12.851Z,3.400000
2019-03-27T00:17:43.989Z,3.400000
2019-03-27T00:20:14.360Z,3.600000
2019-03-27T00:22:44.834Z,3.600000
2019-03-27T00:25:15.143Z,6.300000
2019-03-27T00:27:45.618Z,6.300000
2019-03-27T00:30:16.045Z,4.900000
2019-03-27T00:32:46.392Z,4.900000
2019-03-27T00:35:16.689Z,5.200000
2019-03-27T00:37:47.183Z,5.200000
2019-03-27T00:40:17.468Z,3.800000
2019-03-27T00:42:47.762Z,3.800000
2019-03-27T00:45:26.428Z,5.500000
2019-03-27T00:47:57.510Z,5.500000
2019-03-27T00:50:27.860Z,6.200000
2019-03-27T00:52:58.254Z,6.200000
2019-03-27T00:55:28.654Z,4.500000
2019-03-27T00:57:59.118Z,4.500000
2019-03-27T01:00:29.460Z,3.000000
2019-03-27T01:02:59.962Z,3.000000
2019-03-27T01:05:30.351Z,5.700000
2019-03-27T01:08:00.804Z,5.700000
2019-03-27T01:10:31.110Z,10.500000
2019-03-27T01:13:01.666Z,10.500000
2019-03-27T01:15:39.747Z,6.900000
2019-03-27T01:18:10.721Z,6.900000
2019-03-27T01:20:41.083Z,4.400000
2019-03-27T01:23:11.345Z,4.400000
2019-03-27T01:25:41.625Z,3.500000
2019-03-27T01:28:12.096Z,3.500000
2019-03-27T01:30:42.498Z,3.200000
2019-03-27T01:33:12.967Z,3.200000
2019-03-27T01:35:43.266Z,7.300000
2019-03-27T01:38:13.667Z,7.300000
2019-03-27T01:40:44.124Z,3.800000
2019-03-27T01:43:14.495Z,3.800000
2019-03-27T01:45:53.053Z,5.700000
2019-03-27T01:48:23.832Z,5.700000
2019-03-27T01:50:54.193Z,9.100000
2019-03-27T01:53:24.486Z,6.300000
2019-03-27T01:55:54.792Z,6.300000
2019-03-27T01:58:25.255Z,3.800000
2019-03-27T02:00:55.758Z,3.800000
2019-03-27T02:03:26.147Z,4.500000
2019-03-27T02:05:56.513Z,4.500000
2019-03-27T02:08:26.813Z,6.900000
2019-03-27T02:10:57.220Z,6.900000
2019-03-27T02:13:27.598Z,6.300000
2019-03-27T02:16:06.668Z,6.300000
2019-03-27T02:18:37.760Z,6.200000
2019-03-27T02:21:08.137Z,6.200000
2019-03-27T02:23:38.519Z,6.000000
2019-03-27T02:26:08.925Z,6.000000
2019-03-27T02:28:39.519Z,5.100000
2019-03-27T02:31:09.827Z,5.100000
2019-03-27T02:33:40.178Z,2.900000
2019-03-27T02:36:10.580Z,2.900000
2019-03-27T02:38:41.144Z,6.600000
2019-03-27T02:41:11.551Z,6.600000
2019-03-27T02:43:41.912Z,6.500000
2019-03-27T02:46:24.335Z,6.500000
2019-03-27T02:48:56.024Z,3.300000
2019-03-27T02:51:26.398Z,3.300000
2019-03-27T02:53:56.680Z,5.100000
2019-03-27T02:56:27.039Z,5.100000
2019-03-27T02:58:57.344Z,6.900000
2019-03-27T03:01:27.715Z,6.900000
2019-03-27T03:03:57.999Z,4.500000
2019-03-27T03:06:33.333Z,4.500000
2019-03-27T03:09:03.615Z,8.300000
2019-03-27T03:11:34.137Z,8.300000
2019-03-27T03:14:09.660Z,5.500000
2019-03-27T03:16:42.780Z,5.500000
2019-03-27T03:19:13.818Z,4.500000
2019-03-27T03:21:44.038Z,4.500000
2019-03-27T03:24:14.409Z,5.400000
2019-03-27T03:26:44.688Z,5.400000
2019-03-27T03:29:15.110Z,9.600000
2019-03-27T03:31:50.677Z,9.600000
2019-03-27T03:34:26.060Z,4.100000
2019-03-27T03:36:56.484Z,4.100000
2019-03-27T03:39:26.839Z,3.000000
2019-03-27T03:41:57.326Z,3.000000
2019-03-27T03:44:27.698Z,5.900000
2019-03-27T03:47:03.080Z,5.900000
2019-03-27T03:49:33.398Z,4.100000
2019-03-27T03:52:03.765Z,4.100000
2019-03-27T03:54:39.169Z,4.600000
2019-03-27T03:57:14.609Z,4.600000
2019-03-27T03:59:49.992Z,5.600000
2019-03-27T04:02:20.359Z,5.600000
2019-03-27T04:04:50.870Z,5.300000
2019-03-27T04:07:21.485Z,5.300000
2019-03-27T04:09:51.860Z,5.900000
2019-03-27T04:12:22.266Z,5.900000
2019-03-27T04:14:52.625Z,4.600000
2019-03-27T04:17:22.992Z,4.600000
2019-03-27T04:19:53.364Z,6.900000
2019-03-27T04:22:23.756Z,6.900000
2019-03-27T04:24:54.207Z,6.800000
2019-03-27T04:27:24.645Z,6.800000
2019-03-27T04:29:54.866Z,4.000000
2019-03-27T04:32:25.234Z,4.000000
2019-03-27T04:34:55.508Z,5.800000
2019-03-27T04:37:25.775Z,5.800000
2019-03-27T04:39:56.066Z,9.000000
2019-03-27T04:42:26.470Z,9.000000
2019-03-27T04:44:56.782Z,6.100000
2019-03-27T04:47:32.380Z,6.100000
2019-03-27T04:50:03.048Z,6.100000
2019-03-27T04:52:33.441Z,5.000000
2019-03-27T04:55:03.824Z,5.000000
2019-03-27T04:57:34.203Z,5.500000
2019-03-27T05:00:04.566Z,5.500000
2019-03-27T05:02:34.961Z,4.800000
2019-03-27T05:05:05.340Z,4.800000
2019-03-27T05:07:35.840Z,10.400000
2019-03-27T05:10:06.218Z,10.400000
2019-03-27T05:12:38.662Z,4.600000
2019-03-27T05:15:09.288Z,4.600000
2019-03-27T05:17:45.679Z,4.400000
2019-03-27T05:20:16.438Z,4.400000
2019-03-27T05:22:47.984Z,7.500000
2019-03-27T05:25:18.277Z,7.500000
2019-03-27T05:27:48.589Z,5.300000
2019-03-27T05:30:18.867Z,5.300000
2019-03-27T05:32:49.250Z,7.200000
2019-03-27T05:35:19.574Z,7.200000
2019-03-27T05:37:49.935Z,5.900000
2019-03-27T05:40:20.218Z,5.900000
2019-03-27T05:43:00.628Z,4.500000
2019-03-27T05:45:31.643Z,4.500000
2019-03-27T05:48:01.966Z,5.700000
2019-03-27T05:50:32.289Z,5.700000
2019-03-27T05:53:02.601Z,9.000000
2019-03-27T05:55:32.866Z,9.000000
2019-03-27T05:58:03.251Z,5.600000
2019-03-27T06:00:33.745Z,5.600000
2019-03-27T06:03:03.990Z,6.500000
2019-03-27T06:05:34.400Z,6.500000
2019-03-27T06:08:04.746Z,8.200000
2019-03-27T06:10:35.233Z,8.200000
2019-03-27T06:13:05.704Z,11.600000
2019-03-27T06:15:41.016Z,11.600000
2019-03-27T06:18:13.404Z,5.300000
2019-03-27T06:20:43.944Z,5.300000
2019-03-27T06:23:14.387Z,12.000000
2019-03-27T06:25:44.798Z,12.000000
2019-03-27T06:28:15.243Z,10.000000
2019-03-27T06:30:50.604Z,10.000000
2019-03-27T06:33:20.979Z,8.000000
2019-03-27T06:35:51.460Z,8.000000
2019-03-27T06:38:21.857Z,8.400000
2019-03-27T06:40:57.253Z,8.400000
2019-03-27T06:43:27.550Z,7.000000
2019-03-27T06:45:58.512Z,7.000000
2019-03-27T06:48:29.023Z,5.000000
2019-03-27T06:50:59.392Z,5.000000
2019-03-27T06:53:29.899Z,13.000000
2019-03-27T06:56:00.251Z,13.000000
2019-03-27T06:58:30.642Z,4.600000
2019-03-27T07:01:00.909Z,4.600000
2019-03-27T07:03:31.291Z,9.800000
2019-03-27T07:06:01.685Z,9.800000
2019-03-27T07:08:31.991Z,13.200000
2019-03-27T07:11:02.371Z,13.200000
2019-03-27T07:13:32.778Z,11.900000
2019-03-27T07:16:03.149Z,11.900000
2019-03-27T07:18:40.075Z,10.900000
2019-03-27T07:21:11.081Z,10.900000
2019-03-27T07:23:41.447Z,6.500000
2019-03-27T07:26:11.843Z,6.500000
2019-03-27T07:28:42.155Z,6.400000
2019-03-27T07:31:12.476Z,6.400000
2019-03-27T07:33:42.874Z,5.100000
2019-03-27T07:36:13.305Z,5.100000
2019-03-27T07:38:43.613Z,6.500000
2019-03-27T07:41:13.912Z,6.500000
2019-03-27T07:43:44.210Z,7.000000
2019-03-27T07:46:14.701Z,7.000000
2019-03-27T07:48:53.723Z,6.000000
2019-03-27T07:51:24.504Z,6.000000
2019-03-27T07:53:54.989Z,8.500000
2019-03-27T07:56:25.362Z,8.500000
2019-03-27T07:58:55.732Z,5.900000
2019-03-27T08:01:26.114Z,5.900000
2019-03-27T08:03:56.496Z,7.300000
2019-03-27T08:06:26.771Z,7.300000
2019-03-27T08:08:57.163Z,6.700000
2019-03-27T08:11:27.523Z,6.700000
2019-03-27T08:13:57.852Z,9.800000
2019-03-27T08:16:28.161Z,9.800000
2019-03-27T08:19:07.526Z,7.400000
2019-03-27T08:21:38.427Z,7.400000
2019-03-27T08:24:08.737Z,7.400000
2019-03-27T08:26:39.128Z,9.500000
2019-03-27T08:29:09.563Z,9.500000
2019-03-27T08:31:39.851Z,9.300000
2019-03-27T08:34:10.144Z,9.300000
2019-03-27T08:36:40.451Z,6.900000
2019-03-27T08:39:10.792Z,6.900000
2019-03-27T08:41:41.084Z,5.600000
2019-03-27T08:44:11.422Z,5.600000
2019-03-27T08:46:41.746Z,11.300000
2019-03-27T08:49:21.883Z,11.300000
2019-03-27T08:51:52.848Z,7.900000
2019-03-27T08:54:23.303Z,7.900000
2019-03-27T08:56:53.580Z,7.800000
2019-03-27T08:59:23.958Z,7.800000
2019-03-27T09:01:54.411Z,8.200000
2019-03-27T09:04:24.675Z,8.200000
2019-03-27T09:06:54.967Z,9.300000
2019-03-27T09:09:25.258Z,9.300000
2019-03-27T09:11:55.559Z,9.000000
2019-03-27T09:14:25.966Z,9.000000
2019-03-27T09:16:56.280Z,6.100000
2019-03-27T09:19:35.736Z,6.100000
2019-03-27T09:22:06.648Z,7.000000
2019-03-27T09:24:37.021Z,7.000000
2019-03-27T09:27:07.487Z,8.700000
2019-03-27T09:29:37.794Z,8.700000
2019-03-27T09:32:08.132Z,11.200000
2019-03-27T09:34:38.492Z,11.200000
2019-03-27T09:37:08.864Z,7.300000
2019-03-27T09:39:39.152Z,7.300000
2019-03-27T09:42:09.467Z,5.700000
2019-03-27T09:44:39.924Z,5.700000
2019-03-27T09:47:10.380Z,8.700000
2019-03-27T09:49:49.332Z,8.700000
2019-03-27T09:52:20.547Z,6.700000
2019-03-27T09:54:50.960Z,6.700000
2019-03-27T09:57:21.274Z,6.000000
2019-03-27T09:59:51.627Z,6.000000
2019-03-27T10:02:22.069Z,6.500000
2019-03-27T10:04:55.798Z,6.500000
2019-03-27T10:07:26.497Z,7.300000
2019-03-27T10:09:56.777Z,7.300000
2019-03-27T10:12:27.089Z,5.700000
2019-03-27T10:14:57.493Z,5.700000
2019-03-27T10:17:27.779Z,5.300000
2019-03-27T10:20:03.844Z,5.300000
2019-03-27T10:22:34.522Z,5.200000
2019-03-27T10:25:04.890Z,5.200000
2019-03-27T10:27:35.208Z,5.000000
2019-03-27T10:30:05.575Z,5.000000
2019-03-27T10:32:35.808Z,5.200000
2019-03-27T10:35:06.061Z,5.200000
2019-03-27T10:37:36.402Z,5.900000
2019-03-27T10:40:06.659Z,5.900000
2019-03-27T10:42:37.094Z,8.200000
2019-03-27T10:45:07.407Z,8.200000
2019-03-27T10:47:37.792Z,4.600000
2019-03-27T10:50:17.597Z,4.600000
2019-03-27T10:52:48.530Z,4.100000
2019-03-27T10:55:18.956Z,4.100000
2019-03-27T10:57:49.237Z,3.900000
2019-03-27T11:00:19.561Z,3.900000
2019-03-27T11:02:50.156Z,6.100000
2019-03-27T11:05:20.493Z,6.100000
2019-03-27T11:07:50.912Z,4.600000
2019-03-27T11:10:21.482Z,4.600000
2019-03-27T11:12:51.826Z,5.800000
2019-03-27T11:15:22.402Z,5.800000
2019-03-27T11:17:52.924Z,4.400000
2019-03-27T11:20:30.800Z,4.400000
2019-03-27T11:23:04.126Z,5.900000
2019-03-27T11:25:34.465Z,5.900000
2019-03-27T11:28:04.986Z,5.000000
2019-03-27T11:30:35.363Z,5.000000
2019-03-27T11:33:05.670Z,4.500000
2019-03-27T11:35:36.021Z,4.500000
2019-03-27T11:38:06.510Z,6.200000
2019-03-27T11:40:36.819Z,6.200000
2019-03-27T11:43:07.129Z,5.700000
2019-03-27T11:45:37.676Z,5.700000
2019-03-27T11:48:08.250Z,4.600000
2019-03-27T11:50:45.190Z,4.600000
2019-03-27T11:53:15.886Z,6.100000
2019-03-27T11:55:46.269Z,6.100000
2019-03-27T11:58:16.566Z,5.500000
2019-03-27T12:00:54.628Z,5.500000
2019-03-27T12:03:25.422Z,6.500000
2019-03-27T12:05:55.802Z,6.500000
2019-03-27T12:08:26.188Z,6.600000
2019-03-27T12:10:56.573Z,6.600000
2019-03-27T12:13:26.856Z,4.600000
2019-03-27T12:15:57.141Z,4.600000
2019-03-27T12:18:27.520Z,6.100000
2019-03-27T12:20:59.481Z,6.100000
2019-03-27T12:23:30.126Z,8.800000
2019-03-27T12:26:00.487Z,8.800000
2019-03-27T12:28:30.831Z,4.700000
2019-03-27T12:31:01.241Z,4.700000
2019-03-27T12:33:31.582Z,7.300000
2019-03-27T12:36:01.904Z,7.300000
2019-03-27T12:38:32.238Z,6.700000
2019-03-27T12:41:02.563Z,6.700000
2019-03-27T12:43:32.898Z,5.300000
2019-03-27T12:46:03.186Z,5.300000
2019-03-27T12:48:33.468Z,5.800000
2019-03-27T12:51:12.649Z,5.800000
2019-03-27T12:53:43.622Z,5.400000
2019-03-27T12:56:13.969Z,5.000000
2019-03-27T12:58:44.368Z,5.000000
2019-03-27T13:01:14.711Z,6.500000
2019-03-27T13:03:45.243Z,6.500000
2019-03-27T13:06:15.776Z,4.700000
2019-03-27T13:08:49.261Z,4.700000
2019-03-27T13:11:19.895Z,5.100000
2019-03-27T13:13:50.236Z,5.100000
2019-03-27T13:16:20.660Z,6.300000
2019-03-27T13:18:50.912Z,6.300000
2019-03-27T13:21:26.580Z,6.000000
2019-03-27T13:23:57.275Z,6.000000
2019-03-27T13:26:27.569Z,6.600000
2019-03-27T13:28:58.029Z,6.600000
2019-03-27T13:31:28.324Z,6.800000
2019-03-27T13:33:58.631Z,6.800000
2019-03-27T13:36:29.058Z,8.300000
2019-03-27T13:38:59.482Z,8.300000
2019-03-27T13:41:29.701Z,5.900000
2019-03-27T13:44:00.013Z,5.900000
2019-03-27T13:46:30.343Z,6.000000
2019-03-27T13:49:00.667Z,6.000000
2019-03-27T13:51:40.404Z,8.200000
2019-03-27T13:54:11.460Z,8.200000
2019-03-27T13:56:41.754Z,5.800000
2019-03-27T13:59:12.167Z,5.800000
2019-03-27T14:01:42.449Z,4.800000
2019-03-27T14:04:12.776Z,4.800000
2019-03-27T14:06:44.728Z,6.200000
2019-03-27T14:09:15.328Z,6.200000
2019-03-27T14:11:45.613Z,5.900000
2019-03-27T14:14:15.900Z,5.900000
2019-03-27T14:16:46.170Z,4.000000
2019-03-27T14:19:16.535Z,4.000000
2019-03-27T14:21:54.488Z,5.900000
2019-03-27T14:24:25.767Z,5.900000
2019-03-27T14:26:56.241Z,7.100000
2019-03-27T14:29:26.920Z,7.100000
2019-03-27T14:31:57.304Z,6.700000
2019-03-27T14:34:28.183Z,6.700000
2019-03-27T14:36:58.414Z,3.700000
2019-03-27T14:39:28.878Z,3.700000
2019-03-27T14:41:59.253Z,3.700000
2019-03-27T14:44:29.510Z,3.700000
2019-03-27T14:46:59.856Z,5.900000
2019-03-27T14:49:30.305Z,5.900000
2019-03-27T14:52:08.115Z,5.000000
2019-03-27T14:54:39.053Z,5.000000
2019-03-27T14:57:09.379Z,5.100000
2019-03-27T14:59:39.620Z,5.100000
2019-03-27T15:02:09.943Z,3.300000
2019-03-27T15:04:40.286Z,3.300000
2019-03-27T15:07:10.626Z,5.200000
2019-03-27T15:09:45.860Z,5.200000
2019-03-27T15:12:16.160Z,4.900000
2019-03-27T15:14:46.700Z,4.900000
2019-03-27T15:17:16.904Z,4.200000
2019-03-27T15:19:47.215Z,4.200000
2019-03-27T15:22:22.808Z,4.700000
2019-03-27T15:24:53.366Z,4.700000
2019-03-27T15:27:28.692Z,4.500000
2019-03-27T15:29:58.996Z,4.500000
2019-03-27T15:32:29.323Z,3.300000
2019-03-27T15:34:59.818Z,3.300000
2019-03-27T15:37:30.217Z,4.700000
2019-03-27T15:40:00.781Z,4.700000
2019-03-27T15:42:31.136Z,5.800000
2019-03-27T15:45:01.500Z,5.800000
2019-03-27T15:47:31.697Z,5.800000
2019-03-27T15:50:01.991Z,5.800000
2019-03-27T15:52:36.860Z,4.100000
2019-03-27T15:55:07.534Z,4.100000
2019-03-27T15:57:37.933Z,6.300000
2019-03-27T16:00:08.321Z,6.300000
2019-03-27T16:02:38.626Z,3.700000
2019-03-27T16:05:09.007Z,3.700000
2019-03-27T16:07:39.388Z,3.000000
2019-03-27T16:10:09.677Z,3.000000
2019-03-27T16:12:40.145Z,4.800000
2019-03-27T16:15:10.700Z,4.800000
2019-03-27T16:17:41.170Z,3.500000
2019-03-27T16:20:11.547Z,3.500000
2019-03-27T16:22:50.646Z,3.500000
2019-03-27T16:25:21.666Z,3.500000
2019-03-27T16:27:52.099Z,2.400000
2019-03-27T16:30:22.470Z,2.400000
2019-03-27T16:32:52.924Z,2.800000
2019-03-27T16:35:23.459Z,2.800000
2019-03-27T16:37:53.933Z,3.100000
2019-03-27T16:40:24.372Z,3.100000
2019-03-27T16:42:54.709Z,3.700000
2019-03-27T16:45:25.011Z,3.700000
2019-03-27T16:47:55.345Z,2.300000
2019-03-27T16:50:25.645Z,2.300000
2019-03-27T16:53:03.343Z,4.800000
2019-03-27T16:55:34.402Z,2.300000
2019-03-27T16:58:04.878Z,2.300000
2019-03-27T17:00:35.250Z,4.400000
2019-03-27T17:03:05.732Z,4.400000
2019-03-27T17:05:36.078Z,3.400000
2019-03-27T17:08:06.484Z,3.400000
2019-03-27T17:10:36.870Z,4.400000
2019-03-27T17:13:07.226Z,4.400000
2019-03-27T17:15:37.617Z,5.900000
2019-03-27T17:18:08.010Z,5.900000
2019-03-27T17:20:43.463Z,4.900000
2019-03-27T17:23:19.095Z,4.900000
2019-03-27T17:25:49.670Z,7.300000
2019-03-27T17:28:20.096Z,7.300000
2019-03-27T17:30:50.448Z,9.200000
2019-03-27T17:33:20.829Z,9.200000
2019-03-27T17:35:51.214Z,7.600000
2019-03-27T17:38:22.086Z,7.600000
2019-03-27T17:40:52.610Z,6.100000
2019-03-27T17:43:22.953Z,6.100000
2019-03-27T17:45:53.409Z,6.900000
2019-03-27T17:48:23.723Z,6.900000
2019-03-27T17:50:54.011Z,6.900000
2019-03-27T17:53:31.495Z,6.900000
2019-03-27T17:56:02.446Z,6.200000
2019-03-27T17:58:32.778Z,6.200000
2019-03-27T18:01:03.227Z,5.000000
2019-03-27T18:03:38.696Z,5.000000
2019-03-27T18:06:09.276Z,7.400000
2019-03-27T18:08:39.584Z,7.400000
2019-03-27T18:11:09.938Z,4.100000
2019-03-27T18:13:40.257Z,4.100000
2019-03-27T18:16:10.672Z,3.900000
2019-03-27T18:18:40.953Z,3.900000
2019-03-27T18:21:11.502Z,3.700000
2019-03-27T18:23:46.239Z,3.700000
2019-03-27T18:26:22.315Z,10.500000
2019-03-27T18:28:52.905Z,10.500000
2019-03-27T18:31:23.288Z,5.000000
2019-03-27T18:33:53.585Z,5.000000
2019-03-27T18:36:23.891Z,8.700000
2019-03-27T18:38:54.187Z,8.700000
2019-03-27T18:41:24.597Z,8.100000
2019-03-27T18:43:54.926Z,8.100000
2019-03-27T18:46:25.359Z,6.300000
2019-03-27T18:48:55.736Z,6.300000
2019-03-27T18:51:26.037Z,4.700000
2019-03-27T18:53:59.873Z,4.700000
2019-03-27T18:56:30.700Z,9.900000
2019-03-27T18:59:01.043Z,9.900000
2019-03-27T19:01:31.446Z,7.900000
2019-03-27T19:04:01.948Z,7.900000
2019-03-27T19:06:32.363Z,7.600000
2019-03-27T19:09:02.700Z,7.600000
2019-03-27T19:11:33.101Z,8.600000
2019-03-27T19:14:03.387Z,8.600000
2019-03-27T19:16:33.674Z,6.900000
2019-03-27T19:19:03.974Z,6.900000
2019-03-27T19:21:34.236Z,8.400000
2019-03-27T19:24:14.669Z,8.400000
2019-03-27T19:26:45.394Z,7.200000
2019-03-27T19:29:15.671Z,7.200000
2019-03-27T19:31:45.970Z,8.000000
2019-03-27T19:34:16.254Z,8.000000
2019-03-27T19:36:46.641Z,8.300000
2019-03-27T19:39:17.040Z,8.300000
2019-03-27T19:41:47.533Z,11.600000
2019-03-27T19:44:18.155Z,11.600000
2019-03-27T19:46:48.632Z,7.400000
2019-03-27T19:49:18.964Z,7.400000
2019-03-27T19:51:49.386Z,9.200000
2019-03-27T19:54:27.132Z,9.200000
2019-03-27T19:56:57.996Z,10.700000
2019-03-27T19:59:28.391Z,10.700000
2019-03-27T20:01:58.652Z,10.700000
2019-03-27T20:04:28.946Z,10.700000
2019-03-27T20:06:59.343Z,7.800000
2019-03-27T20:09:29.627Z,7.800000
2019-03-27T20:12:00.010Z,9.500000
2019-03-27T20:14:30.310Z,9.500000
2019-03-27T20:17:00.590Z,5.500000
2019-03-27T20:19:30.959Z,5.500000
2019-03-27T20:22:01.236Z,5.900000
2019-03-27T20:24:41.010Z,5.900000
2019-03-27T20:27:11.866Z,5.800000
2019-03-27T20:29:42.285Z,5.800000
2019-03-27T20:32:12.648Z,7.400000
2019-03-27T20:34:43.022Z,6.700000
2019-03-27T20:37:13.394Z,6.700000
2019-03-27T20:39:43.767Z,8.500000
2019-03-27T20:42:14.124Z,8.500000
2019-03-27T20:44:44.501Z,9.700000
2019-03-27T20:47:14.892Z,9.700000
2019-03-27T20:49:45.368Z,7.100000
2019-03-27T20:52:15.732Z,7.100000
2019-03-27T20:54:54.740Z,8.000000
2019-03-27T20:57:25.933Z,8.000000
2019-03-27T20:59:56.282Z,6.600000
2019-03-27T21:02:26.659Z,6.600000
2019-03-27T21:04:57.035Z,12.600000
2019-03-27T21:07:27.509Z,12.600000
2019-03-27T21:09:57.867Z,8.300000
2019-03-27T21:12:28.223Z,8.300000
2019-03-27T21:14:58.595Z,13.300000
2019-03-27T21:17:28.949Z,13.300000
2019-03-27T21:19:59.344Z,7.300000
2019-03-27T21:22:29.784Z,7.300000
2019-03-27T21:25:08.477Z,14.000000
2019-03-27T21:27:40.224Z,14.000000
2019-03-27T21:30:10.706Z,13.000000
2019-03-27T21:32:41.234Z,13.000000
2019-03-27T21:35:11.664Z,16.000000
2019-03-27T21:37:42.293Z,16.000000
2019-03-27T21:40:12.720Z,9.400000
2019-03-27T21:42:48.156Z,9.400000
2019-03-27T21:45:18.587Z,9.900000
2019-03-27T21:47:49.022Z,9.900000
2019-03-27T21:50:19.639Z,17.000000
2019-03-27T21:52:59.842Z,17.000000
2019-03-27T21:55:42.157Z,13.600000
2019-03-27T21:58:13.650Z,13.600000
2019-03-27T22:00:44.075Z,13.700000
2019-03-27T22:03:14.453Z,13.700000
2019-03-27T22:05:44.926Z,8.900000
2019-03-27T22:08:15.454Z,8.900000
2019-03-27T22:10:45.878Z,10.200000
2019-03-27T22:13:16.406Z,10.200000
2019-03-27T22:15:46.834Z,16.900000
2019-03-27T22:18:17.259Z,16.900000
2019-03-27T22:20:47.696Z,16.600000
2019-03-27T22:23:18.211Z,16.600000
2019-03-27T22:25:48.636Z,16.200000
2019-03-27T22:28:19.335Z,16.200000
2019-03-27T22:30:49.899Z,19.400000
2019-03-27T22:33:20.441Z,19.400000
2019-03-27T22:35:55.892Z,14.000000
2019-03-27T22:38:26.298Z,14.000000
2019-03-27T22:40:56.821Z,16.300000
2019-03-27T22:43:27.349Z,16.300000
2019-03-27T22:45:57.877Z,13.600000
2019-03-27T22:48:28.199Z,13.600000
2019-03-27T22:50:58.626Z,14.700000
2019-03-27T22:53:29.154Z,14.700000
2019-03-27T22:55:59.580Z,19.400000
2019-03-27T22:58:29.964Z,19.400000
2019-03-27T23:01:00.920Z,11.100000
2019-03-27T23:03:31.366Z,11.100000
2019-03-27T23:06:01.691Z,11.600000
2019-03-27T23:08:32.115Z,11.600000
2019-03-27T23:11:02.746Z,12.500000
2019-03-27T23:13:33.176Z,12.500000
2019-03-27T23:16:03.694Z,16.000000
2019-03-27T23:18:34.126Z,16.000000
2019-03-27T23:21:09.521Z,11.700000
2019-03-27T23:23:39.861Z,11.700000
2019-03-27T23:26:10.316Z,11.200000
2019-03-27T23:28:40.761Z,11.200000
2019-03-27T23:31:11.066Z,16.700000
2019-03-27T23:33:41.490Z,16.700000
2019-03-27T23:36:11.920Z,15.900000
2019-03-27T23:38:42.552Z,15.900000
2019-03-27T23:41:13.179Z,18.500000
2019-03-27T23:43:43.806Z,18.500000
2019-03-27T23:46:14.232Z,13.500000
2019-03-27T23:48:44.666Z,13.500000
2019-03-27T23:51:15.185Z,13.700000
2019-03-27T23:53:45.719Z,13.700000
2019-03-27T23:56:17.145Z,12.000000
2019-03-27T23:58:47.690Z,12.000000
